Air Resources Laboratory banner image
Air Resources Laboratory web site National Oceanic and Atmospheric Administration (NOAA)

wy metar


KBPI 210753Z AUTO 33007KT 10SM FEW090 SCT110 08/06 A3025 RMK AO2 SLP158
 T00780061=
KBYG 210753Z AUTO 00000KT 10SM OVC005 11/09 A3029 RMK AO2 SLP223 T01060094=
KCOD 210756Z AUTO 36005KT 10SM OVC009 08/07 A3030 RMK AO2 SLP253 T00830067=
KCPR 210753Z AUTO 32005KT 10SM CLR 09/09 A3023 RMK AO2 SLP186 T00940089=
KCYS 210753Z AUTO 33004KT 10SM SCT120 12/03 A3033 RMK AO2 SLP202 T01220033=
KDGW 210753Z AUTO 14013G24KT 10SM CLR 11/07 A3022 RMK AO2 SLP191 T01110072=
KEVW 210753Z AUTO 10009KT 10SM CLR 13/08 A3021 RMK AO2 SLP130 T01330083=
KGCC 210753Z AUTO 34005KT 10SM OVC060 11/11 A3027 RMK AO2 SLP224 T01110106=
KGEY 210753Z AUTO 32009KT 10SM FEW031 OVC050 12/09 A3023 RMK AO2 SLP217
 T01170094 $=
KLAR 210753Z AUTO 17014KT 7SM -RA FEW050 BKN065 OVC080 09/06 A3035 RMK AO2
 RAB26 SLP175 P0000 T00940056=
KLND 210753Z AUTO 20003KT 6SM BR FEW014 OVC024 11/09 A3025 RMK AO2 LTG DSNT S
 SLP191 T01110094=
KP60 210756Z AUTO 00000KT 06/03 A3029 RMK AO1 SLP200 T00610033=
KRIW 210753Z AUTO 05004KT 7SM OVC008 11/09 A3026 RMK AO2 SLP198 T01060094=
KRKS 210754Z AUTO 07006KT 7SM CLR 12/11 A3020 RMK AO2 SLP145 T01170106=
KRWL 210753Z AUTO 08006KT 8SM SCT110 12/12 A3025 RMK AO2 SLP150 T01170117 PNO $=
KSHR 210753Z AUTO 27003KT 10SM BKN013 OVC022 12/10 A3026 RMK AO2 SLP231
 T01170100=
KTOR 210753Z AUTO 11013KT 10SM FEW080 BKN110 13/08 A3021 RMK AO2 RAE05 SLP198
 P0000 T01280078=
KWRL 210753Z AUTO 30003KT 10SM OVC035 11/09 A3025 RMK AO2 SLP217 T01110094=